Latest Coastal Weather Observations for Learmonth

IDW60701

Issued at 1:33 am WST Thursday 3 September 2026 (issued every 10 minutes, with the page automatically refreshed every 10 minutes)

About coastal observations | Map of coastal stations | Coastal observations for WA | Marine services | Other Formats
Station Details ID: 005007 Name: LEARMONTH AIRPORT Lat: -22.24 Lon: 114.10 Height: 5.0 m
Data from the previous 72 hours. | See also: Recent months at Learmonth
Date/Time
WST
Wind Sea
Height
m
Swell Vis
km
Cloud Weather Temp
°C
Press
MSL
hPa
Rain since
9am
mm
Dir  Spd
kts
Gust
kts
Height
m
Period
s
Dir
03/01:30am SW 9 11 - - - - 10 Clear - 17.5 1017.8 0.0
03/01:00am SW 9 10 - - - - 10 - - 18.1 1017.8 0.0
03/12:30am SW 9 9 - - - - 10 - - 18.5 1018.1 0.0
03/12:00am SW 8 9 - - - - 10 Mostly cloudy - 18.8 1018.1 0.0
 
Date/Time
WST
Wind Sea
Height
m
Swell Vis
km
Cloud Weather Temp
°C
Press
MSL
hPa
Rain since
9am
mm
Dir  Spd
kts
Gust
kts
Height
m
Period
s
Dir
02/11:30pm SW 8 10 - - - - 10 - - 19.3 1018.2 0.0
02/11:00pm SW 9 10 - - - - 10 - - 19.7 1018.2 0.0
02/10:30pm SSW 10 14 - - - - 10 - - 20.4 1018.1 0.0
02/10:00pm SSW 12 15 - - - - 10 - - 20.9 1018.1 0.0
02/09:30pm SW 13 16 - - - - 10 - - 21.1 1018.0 0.0
02/09:00pm SW 13 17 - - - - 10 - - 21.5 1017.7 0.0
02/08:30pm SW 13 18 - - - - 10 - - 22.1 1017.2 0.0
02/08:00pm SW 12 14 - - - - 10 - - 22.6 1016.9 0.0
02/07:30pm SW 13 16 - - - - 10 - - 23.4 1016.6 0.0
02/07:00pm SW 14 18 - - - - 10 - - 24.2 1016.2 0.0
02/06:30pm SW 15 20 - - - - 10 - - 25.6 1015.9 0.0
02/06:00pm SW 13 17 - - - - 10 - - 27.4 1015.6 0.0
02/05:30pm SW 15 19 - - - - 10 - - 29.4 1015.3 0.0
02/05:07pm SW 16 20 - - - - 10 - - 30.9 1015.1 0.0
02/05:00pm SW 17 21 - - - - 10 - - 31.3 1015.0 0.0
02/04:57pm SW 16 21 - - - - 10 - - 31.3 1015.0 0.0
02/04:30pm ESE 7 11 - - - - 10 - - 32.8 1015.0 0.0
02/04:00pm E 8 11 - - - - 10 - - 32.4 1015.2 0.0
02/03:30pm E 9 12 - - - - 10 - - 32.3 1015.3 0.0
02/03:00pm E 10 13 - - - - 10 - - 32.7 1015.5 0.0
02/02:30pm E 11 14 - - - - 10 - - 32.6 1015.9 0.0
02/02:00pm E 11 15 - - - - 10 - - 32.1 1016.2 0.0
02/01:30pm E 9 13 - - - - 10 - - 32.1 1016.6 0.0
02/01:00pm E 10 13 - - - - 10 - - 31.7 1017.1 0.0
02/12:30pm SE 8 13 - - - - 10 - - 31.3 1017.6 0.0
02/12:00pm SE 9 15 - - - - 10 - - 31.3 1018.0 0.0
02/11:30am SE 10 12 - - - - 10 - - 29.6 1018.5 0.0
02/11:00am SE 11 15 - - - - 10 - - 29.0 1018.9 0.0
02/10:30am SSE 10 13 - - - - 10 - - 28.2 1019.3 0.0
02/10:00am SSE 11 15 - - - - 10 - - 26.7 1019.6 0.0
02/09:30am S 11 15 - - - - 10 - - 25.8 1019.8 0.0
02/09:00am S 12 16 - - - - 10 - - 24.0 1019.8 0.0
02/08:30am S 10 12 - - - - 10 - - 22.4 1019.7 0.0
02/08:00am SSW 8 10 - - - - 10 - - 20.3 1019.5 0.0
02/07:30am SW 7 9 - - - - 10 - - 18.2 1019.3 0.0
02/07:00am SW 7 8 - - - - 10 - - 16.2 1019.1 0.0
02/06:30am SW 7 8 - - - - 10 - - 15.7 1019.0 0.0
02/06:00am SW 7 8 - - - - 10 - - 16.0 1018.9 0.0
02/05:30am SW 8 10 - - - - 10 - - 16.2 1018.9 0.0
02/05:00am SW 8 9 - - - - 10 - - 16.5 1018.8 0.0
02/04:30am SW 8 11 - - - - 10 - - 16.8 1018.9 0.0
02/04:00am SW 9 11 - - - - 10 - - 17.0 1018.7 0.0
02/03:30am SW 10 12 - - - - 10 - - 17.1 1018.7 0.0
02/03:00am SW 10 13 - - - - 10 - - 17.3 1018.7 0.0
02/02:30am SW 11 14 - - - - 10 - - 17.6 1018.6 0.0
02/02:00am SW 10 13 - - - - 10 - - 17.9 1018.7 0.0
02/01:30am SSW 12 15 - - - - 10 - - 18.5 1019.0 0.0
02/01:00am SW 12 16 - - - - 10 - - 19.1 1019.1 0.0
02/12:30am SW 11 16 - - - - 10 - - 19.6 1019.4 0.0
02/12:00am SW 13 17 - - - - 10 - - 20.2 1019.6 0.0
 
Date/Time
WST
Wind Sea
Height
m
Swell Vis
km
Cloud Weather Temp
°C
Press
MSL
hPa
Rain since
9am
mm
Dir  Spd
kts
Gust
kts
Height
m
Period
s
Dir
01/11:30pm SW 11 14 - - - - 10 - - 20.4 1019.7 0.0
01/11:00pm SW 11 14 - - - - 10 - - 20.5 1019.8 0.0
01/10:30pm SW 10 11 - - - - 10 - - 20.5 1019.8 0.0
01/10:00pm SW 8 11 - - - - 10 - - 20.2 1019.8 0.0
01/09:30pm WSW 7 9 - - - - 10 - - 20.2 1019.9 0.0
01/09:00pm SW 7 10 - - - - 10 - - 20.7 1019.6 0.0
01/08:30pm SW 9 12 - - - - 10 - - 20.9 1019.4 0.0
01/08:00pm SW 10 13 - - - - 10 - - 21.4 1019.3 0.0
01/07:30pm SW 12 16 - - - - 10 - - 22.1 1018.9 0.0
01/07:00pm SW 11 17 - - - - 10 - - 23.4 1018.5 0.0
01/06:30pm SW 12 15 - - - - 10 - - 24.6 1018.4 0.0
01/06:00pm SSW 11 14 - - - - 10 - - 25.7 1018.3 0.0
01/05:30pm SSW 13 16 - - - - 10 - - 27.4 1018.0 0.0
01/05:00pm SSW 13 17 - - - - 10 - - 29.0 1017.6 0.0
01/04:30pm W 10 13 - - - - 10 - - 30.4 1017.4 0.0
01/04:00pm NE 4 7 - - - - 10 - - 29.9 1017.4 0.0
01/03:30pm ENE 6 9 - - - - 10 - - 29.6 1017.5 0.0
01/03:00pm NE 6 8 - - - - 10 - - 29.3 1017.5 0.0
01/02:30pm ENE 8 10 - - - - 10 - - 29.1 1017.7 0.0
01/02:00pm E 8 10 - - - - 10 - - 29.4 1018.0 0.0
01/01:30pm E 10 12 - - - - 10 - - 28.3 1018.4 0.0
01/01:00pm E 10 12 - - - - 10 - - 28.8 1018.7 0.0
01/12:30pm E 9 13 - - - - 10 - - 28.1 1019.1 0.0
01/12:00pm SE 8 11 - - - - 10 - - 28.0 1019.6 0.0
01/11:30am SE 9 13 - - - - 10 - - 27.3 1020.0 0.0
01/11:00am SE 9 13 - - - - 10 - - 26.7 1020.4 0.0
01/10:30am SSE 10 14 - - - - 10 - - 25.1 1020.8 0.0
01/10:00am SSE 10 13 - - - - 10 - - 23.9 1021.1 0.0
01/09:30am SSE 10 13 - - - - 10 - - 22.4 1021.5 0.0
01/09:00am SSE 11 14 - - - - 10 - - 21.4 1021.6 0.0
01/08:30am S 10 13 - - - - 10 - - 20.4 1021.6 0.0
01/08:00am SSW 10 13 - - - - 10 - - 18.9 1021.6 0.0
01/07:30am SW 8 10 - - - - 10 - - 17.4 1021.4 0.0
01/07:00am WSW 7 8 - - - - 10 - - 15.7 1021.2 0.0
01/06:30am SW 7 9 - - - - 10 - - 14.7 1020.9 0.0
01/06:00am WSW 6 7 - - - - 10 - - 15.0 1020.8 0.0
01/05:30am SW 7 7 - - - - 10 - - 15.1 1020.7 0.0
01/05:00am SW 7 7 - - - - 10 - - 15.1 1020.5 0.0
01/04:30am SW 7 8 - - - - 10 - - 15.2 1020.3 0.0
01/04:00am SW 7 7 - - - - 10 - - 15.2 1020.4 0.0
01/03:30am SW 7 8 - - - - 10 - - 15.5 1020.6 0.0
01/03:00am SW 8 9 - - - - 10 - - 15.9 1020.6 0.0
01/02:30am SW 8 9 - - - - 10 - - 15.9 1020.7 0.0
01/02:00am SW 9 10 - - - - 10 - - 16.2 1020.8 0.0
01/01:30am SW 8 9 - - - - 10 - - 16.5 1021.0 0.0
01/01:00am SW 8 9 - - - - 10 - - 16.4 1021.1 0.0
01/12:30am SW 7 8 - - - - 10 - - 16.5 1021.2 0.0
01/12:00am SW 6 6 - - - - 10 - - 16.6 1021.3 0.0
 
Date/Time
WST
Wind Sea
Height
m
Swell Vis
km
Cloud Weather Temp
°C
Press
MSL
hPa
Rain since
9am
mm
Dir  Spd
kts
Gust
kts
Height
m
Period
s
Dir
31/11:30pm SW 6 8 - - - - 10 - - 17.4 1021.3 0.0
31/11:00pm SSW 7 8 - - - - 10 - - 17.6 1021.4 0.0
31/10:30pm S 7 7 - - - - 10 - - 18.0 1021.4 0.0
31/10:00pm SSW 7 9 - - - - 10 - - 18.7 1021.4 0.0
31/09:30pm SW 7 8 - - - - 10 - - 18.9 1021.5 0.0
31/09:00pm SW 7 9 - - - - 10 - - 19.5 1021.5 0.0
31/08:30pm SW 8 9 - - - - 10 - - 19.4 1021.5 0.0
31/08:00pm SW 8 9 - - - - 10 - - 20.8 1021.3 0.0
31/07:30pm SW 10 13 - - - - 10 - - 21.7 1020.9 0.0
31/07:00pm WSW 11 15 - - - - 10 - - 22.6 1020.6 0.0
31/06:30pm SW 11 15 - - - - 10 - - 23.5 1020.1 0.0
31/06:00pm WSW 11 14 - - - - 10 - - 24.8 1019.6 0.0
31/05:30pm WSW 12 16 - - - - 10 - - 26.2 1019.4 0.0
31/05:00pm W 12 16 - - - - 10 - - 27.1 1019.1 0.0
31/04:30pm W 13 17 - - - - 10 - - 28.1 1018.9 0.0
31/04:00pm WNW 9 15 - - - - 10 - - 29.4 1018.8 0.0
31/03:30pm NE 6 11 - - - - 10 - - 28.7 1018.9 0.0
31/03:00pm ENE 8 10 - - - - 10 - - 28.2 1018.8 0.0
31/02:30pm NE 7 11 - - - - 10 - - 28.4 1019.0 0.0
31/02:00pm NE 9 11 - - - - 10 - - 27.6 1019.2 0.0
31/01:30pm ENE 10 13 - - - - 10 - - 27.8 1019.2 0.0
31/01:00pm ENE 12 14 - - - - 10 - - 27.6 1019.4 0.0
31/12:30pm E 11 13 - - - - 10 - - 27.7 1019.8 0.0
31/12:00pm ESE 8 11 - - - - 10 - - 27.8 1020.3 0.0
31/11:30am SE 6 9 - - - - 10 - - 27.8 1020.4 0.0
31/11:00am SE 7 13 - - - - 10 - - 27.1 1020.5 0.0
31/10:30am SSE 9 13 - - - - 10 - - 26.4 1020.7 0.0
31/10:00am S 8 11 - - - - 10 - - 25.7 1021.0 0.0
31/09:30am SSE 9 12 - - - - 10 - - 24.4 1021.0 0.0
31/09:00am S 9 13 - - - - 10 - - 23.5 1021.1 0.0
31/08:30am S 9 12 - - - - 10 - - 21.6 1021.1 0.0
31/08:00am SSW 7 10 - - - - 10 - - 19.6 1020.9 0.0
31/07:30am SW 6 8 - - - - 10 - - 17.6 1020.7 0.0
31/07:00am SW 6 7 - - - - 10 - - 15.0 1020.4 0.0
31/06:30am WSW 7 7 - - - - 10 - - 14.5 1020.0 0.0
31/06:00am WSW 7 8 - - - - 10 - - 14.8 1019.7 0.0
31/05:30am SW 7 8 - - - - 10 - - 15.3 1019.6 0.0
31/05:00am SW 8 9 - - - - 10 - - 15.7 1019.4 0.0
31/04:30am WSW 7 8 - - - - 10 - - 15.4 1019.4 0.0
31/04:00am WSW 7 7 - - - - 10 - - 15.2 1019.3 0.0
31/03:30am WSW 6 6 - - - - 10 - - 14.7 1019.4 0.0
31/03:00am SW 5 6 - - - - 10 - - 14.4 1019.4 0.0
31/02:30am SSW 6 6 - - - - 10 - - 14.2 1019.3 0.0
31/02:00am S 6 7 - - - - 10 - - 14.4 1019.4 0.0

Other formats

Comma delimited format used in spreadsheet applications
http://www.bom.gov.au/fwo/IDW60701/IDW60701.94302.axf

JavaScript Object Notation format (JSON) in row-major order
http://www.bom.gov.au/fwo/IDW60701/IDW60701.94302.json

Data quality

Most of these data are generated automatically and are frequently updated. Quality checks on data are not normally performed. It is possible for incorrect values to appear. Refer to information at About Latest Weather Observations and please check the disclaimer before using these data.